createdAt,value
2022-10-19T00:00:52.003Z,101883.44
2022-10-19T00:03:22.403Z,101888.28
2022-10-19T00:05:52.444Z,101876.66
2022-10-19T00:08:20.186Z,101886.13
2022-10-19T00:10:48.061Z,101892.75
2022-10-19T00:13:16.179Z,101900.59
2022-10-19T00:15:45.137Z,101895.66
2022-10-19T00:18:12.841Z,101897.81
2022-10-19T00:20:40.606Z,101893.25
2022-10-19T00:23:11.045Z,101886.50
2022-10-19T00:25:38.945Z,101887.81
2022-10-19T00:28:06.898Z,101894.53
2022-10-19T00:30:38.172Z,101924.19
2022-10-19T00:33:05.919Z,101987.28
2022-10-19T00:35:33.691Z,102032.38
2022-10-19T00:38:01.397Z,102065.53
2022-10-19T00:40:30.953Z,102124.81
2022-10-19T00:42:58.638Z,102182.19
2022-10-19T00:45:27.697Z,102232.16
2022-10-19T00:47:55.796Z,102250.69
2022-10-19T00:50:23.777Z,102245.00
2022-10-19T00:52:51.584Z,102256.84
2022-10-19T00:55:19.797Z,102244.72
2022-10-19T00:57:48.983Z,102269.06
2022-10-19T01:00:16.915Z,102290.28
2022-10-19T01:02:44.720Z,102285.47
2022-10-19T01:05:12.786Z,102252.50
2022-10-19T01:07:40.702Z,102225.06
2022-10-19T01:10:09.807Z,102224.81
2022-10-19T01:12:56.887Z,102139.53
2022-10-19T01:15:33.607Z,102093.63
2022-10-19T01:18:07.776Z,102089.22
2022-10-19T01:21:04.262Z,102108.00
2022-10-19T01:24:16.079Z,102086.56
2022-10-19T01:27:28.715Z,102095.81
2022-10-19T01:30:05.390Z,102070.41
2022-10-19T01:32:43.826Z,102078.91
2022-10-19T01:35:17.913Z,102095.72
2022-10-19T01:37:50.347Z,102129.66
2022-10-19T01:40:27.873Z,102135.94
2022-10-19T01:43:02.455Z,102180.63
2022-10-19T01:45:39.639Z,102204.19
2022-10-19T01:48:13.313Z,102228.03
2022-10-19T01:50:47.063Z,102227.22
2022-10-19T01:53:16.925Z,102230.97
2022-10-19T01:55:48.707Z,102239.03
2022-10-19T01:58:20.621Z,102204.44
2022-10-19T02:00:54.665Z,102199.47
2022-10-19T02:03:24.475Z,102216.38
2022-10-19T02:05:54.133Z,102253.94
2022-10-19T02:08:28.597Z,102281.53
2022-10-19T02:10:57.925Z,102305.72
2022-10-19T02:13:27.505Z,102312.94
2022-10-19T02:16:00.083Z,102308.53
2022-10-19T02:18:32.807Z,102314.09
2022-10-19T02:21:03.155Z,102309.03
2022-10-19T02:23:31.333Z,102336.47
2022-10-19T02:26:00.335Z,102315.66
2022-10-19T02:28:29.292Z,102328.19
2022-10-19T02:30:59.915Z,102341.69
2022-10-19T02:33:28.642Z,102341.88
2022-10-19T02:35:56.949Z,102312.47
2022-10-19T02:38:25.897Z,102293.94
2022-10-19T02:41:01.015Z,102147.25
2022-10-19T02:43:30.063Z,102002.75
2022-10-19T02:46:05.328Z,101954.03
2022-10-19T02:48:35.115Z,101922.31
2022-10-19T02:51:03.379Z,101923.84
2022-10-19T02:53:31.124Z,101922.25
2022-10-19T02:55:58.923Z,101922.69
2022-10-19T02:58:26.645Z,101923.97
2022-10-19T03:00:54.474Z,101944.78
2022-10-19T03:03:23.676Z,101917.19
2022-10-19T03:05:52.218Z,101923.09
2022-10-19T03:08:19.936Z,101928.09
2022-10-19T03:10:47.681Z,101926.72
2022-10-19T03:13:15.499Z,101926.00
2022-10-19T03:15:43.198Z,101922.66
2022-10-19T03:18:10.954Z,101922.66
2022-10-19T03:20:40.009Z,101926.59
2022-10-19T03:23:07.778Z,101927.38
2022-10-19T03:25:35.497Z,101939.84
2022-10-19T03:28:03.194Z,101949.63
2022-10-19T03:30:30.926Z,101949.59
2022-10-19T03:32:58.652Z,101941.19
2022-10-19T03:35:26.392Z,101948.88
2022-10-19T03:37:55.439Z,101950.47
2022-10-19T03:40:23.154Z,101955.56
2022-10-19T03:42:50.837Z,101951.59
2022-10-19T03:45:18.573Z,101944.09
2022-10-19T03:47:50.400Z,101954.50
2022-10-19T03:50:18.367Z,101955.13
2022-10-19T03:52:46.278Z,101950.88
2022-10-19T03:55:15.636Z,101951.44
2022-10-19T03:57:43.717Z,101946.81
2022-10-19T04:00:12.642Z,101969.66
2022-10-19T04:02:40.553Z,101962.75
2022-10-19T04:05:09.219Z,101976.69
2022-10-19T04:07:36.922Z,101986.72
2022-10-19T04:10:05.089Z,102009.31
2022-10-19T04:12:34.359Z,102036.84
2022-10-19T04:15:02.051Z,102057.63
2022-10-19T04:17:29.747Z,102023.44
2022-10-19T04:19:57.472Z,102029.09
2022-10-19T04:22:25.182Z,102022.06
2022-10-19T04:24:52.956Z,102009.81
2022-10-19T04:27:20.663Z,102008.06
2022-10-19T04:29:49.776Z,102041.25
2022-10-19T04:32:17.490Z,102088.88
2022-10-19T04:34:45.205Z,102067.63
2022-10-19T04:37:12.958Z,102050.16
2022-10-19T04:39:43.171Z,102080.81
2022-10-19T04:42:10.875Z,102077.22
2022-10-19T04:44:38.917Z,102035.16
2022-10-19T04:47:08.043Z,102029.44
2022-10-19T04:49:35.776Z,102041.00
2022-10-19T04:52:03.493Z,102034.81
2022-10-19T04:54:31.249Z,102025.31
2022-10-19T04:56:59.186Z,102020.91
2022-10-19T04:59:26.907Z,102006.66
2022-10-19T05:01:54.632Z,102014.72
2022-10-19T05:04:23.731Z,102022.53
2022-10-19T05:06:51.572Z,102009.31
2022-10-19T05:09:19.315Z,102024.03
2022-10-19T05:11:47.429Z,102026.28
2022-10-19T05:14:15.325Z,102025.34
2022-10-19T05:16:43.284Z,102013.88
2022-10-19T05:19:14.247Z,102031.75
2022-10-19T05:21:43.469Z,102025.84
2022-10-19T05:24:12.795Z,102039.53
2022-10-19T05:26:40.594Z,102035.56
2022-10-19T05:29:12.952Z,102038.63
2022-10-19T05:31:41.030Z,102047.94
2022-10-19T05:34:08.866Z,102063.53
2022-10-19T05:36:38.240Z,102059.94
2022-10-19T05:39:10.314Z,102068.13
2022-10-19T05:41:38.107Z,102070.66
2022-10-19T05:44:06.894Z,102064.03
2022-10-19T05:46:35.838Z,102054.81
2022-10-19T05:49:03.603Z,102071.56
2022-10-19T05:51:31.308Z,102077.38
2022-10-19T05:53:59.149Z,102089.63
2022-10-19T05:56:30.504Z,102081.19
2022-10-19T05:58:59.429Z,102075.03
2022-10-19T06:01:28.393Z,102081.34
2022-10-19T06:03:58.076Z,102086.19
2022-10-19T06:06:26.878Z,102091.47
2022-10-19T06:08:56.567Z,102100.78
2022-10-19T06:11:26.731Z,102113.81
2022-10-19T06:13:57.782Z,102127.50
2022-10-19T06:16:27.022Z,102133.56
2022-10-19T06:18:56.118Z,102126.38
2022-10-19T06:21:25.621Z,102121.53
2022-10-19T06:23:53.911Z,102128.19
2022-10-19T06:26:22.271Z,102139.53
2022-10-19T06:28:50.813Z,102170.63
2022-10-19T06:31:19.923Z,102174.28
2022-10-19T06:33:49.438Z,102154.84
2022-10-19T06:36:19.240Z,102146.03
2022-10-19T06:38:47.388Z,102143.28
2022-10-19T06:41:15.721Z,102126.72
2022-10-19T06:43:44.390Z,102121.81
2022-10-19T06:46:14.914Z,102157.72
2022-10-19T06:48:44.380Z,102163.31
2022-10-19T06:51:13.588Z,102177.19
2022-10-19T06:53:41.315Z,102185.53
2022-10-19T06:56:09.695Z,102185.56
2022-10-19T06:58:38.169Z,102188.94
2022-10-19T07:01:08.457Z,102190.09
2022-10-19T07:03:37.263Z,102213.09
2022-10-19T07:06:08.482Z,102222.03
2022-10-19T07:08:37.357Z,102209.13
2022-10-19T07:11:07.269Z,102228.94
2022-10-19T07:13:35.187Z,102213.19
2022-10-19T07:16:09.287Z,102280.09
2022-10-19T07:18:38.632Z,102305.06
2022-10-19T07:21:09.753Z,102279.03
2022-10-19T07:23:39.757Z,102304.41
2022-10-19T07:26:11.844Z,102319.53
2022-10-19T07:28:40.912Z,102255.03
2022-10-19T07:31:10.447Z,102251.53
2022-10-19T07:33:38.817Z,102238.59
2022-10-19T07:36:09.996Z,102234.59
2022-10-19T07:38:38.632Z,102229.06
2022-10-19T07:41:08.448Z,102240.78
2022-10-19T07:43:36.284Z,102249.97
2022-10-19T07:46:06.333Z,102329.22
2022-10-19T07:48:34.371Z,102411.41
2022-10-19T07:51:03.219Z,102475.84
2022-10-19T07:53:32.305Z,102503.78
2022-10-19T07:56:05.012Z,102537.78
2022-10-19T07:58:32.769Z,102628.00
2022-10-19T08:01:01.814Z,102670.09
2022-10-19T08:06:20.039Z,102696.69
2022-10-19T08:08:50.183Z,102711.41
2022-10-19T08:11:20.310Z,102697.22
2022-10-19T08:13:48.438Z,102683.44
2022-10-19T08:16:25.258Z,102669.31
2022-10-19T08:18:54.257Z,102684.84
2022-10-19T08:21:21.964Z,102684.72
2022-10-19T08:23:51.037Z,102678.34
2022-10-19T08:26:18.748Z,102691.06
2022-10-19T08:28:46.575Z,102664.28
2022-10-19T08:31:16.903Z,102655.50
2022-10-19T08:33:44.886Z,102615.31
2022-10-19T08:36:14.510Z,102653.16
2022-10-19T08:38:44.700Z,102687.44
2022-10-19T08:41:33.898Z,102678.66
2022-10-19T08:44:41.420Z,102745.91
2022-10-19T08:47:23.552Z,102749.72
2022-10-19T08:49:52.210Z,102753.91
2022-10-19T08:52:22.389Z,102743.81
2022-10-19T08:54:54.439Z,102757.16
2022-10-19T08:57:40.994Z,102751.97
2022-10-19T09:00:13.725Z,102757.38
2022-10-19T09:02:55.318Z,102742.59
2022-10-19T09:05:36.878Z,102736.81
2022-10-19T09:08:06.985Z,102724.03
2022-10-19T09:10:38.525Z,102731.59
2022-10-19T09:13:16.250Z,102749.31
2022-10-19T09:15:47.208Z,102747.09
2022-10-19T09:18:19.893Z,102747.69
2022-10-19T09:20:50.165Z,102697.13
2022-10-19T09:23:23.274Z,102671.97
2022-10-19T09:25:52.123Z,102706.75
2022-10-19T09:28:41.585Z,102730.81
2022-10-19T09:31:16.393Z,102725.38
2022-10-19T09:33:47.954Z,102737.00
2022-10-19T09:36:22.785Z,102726.22
2022-10-19T09:38:55.598Z,102744.16
2022-10-19T09:41:25.392Z,102778.94
2022-10-19T09:43:55.770Z,102791.94
2022-10-19T09:46:38.673Z,102784.59
2022-10-19T09:49:06.944Z,102789.84
2022-10-19T09:51:45.922Z,102789.88
2022-10-19T09:54:32.104Z,102780.88
2022-10-19T09:56:59.942Z,102788.06
2022-10-19T09:59:34.422Z,102801.69
2022-10-19T10:02:14.876Z,102803.22
2022-10-19T10:04:43.058Z,102804.44
2022-10-19T10:07:17.353Z,102813.59
2022-10-19T10:09:46.045Z,102816.16
2022-10-19T10:12:16.593Z,102813.41
2022-10-19T10:14:46.410Z,102803.56
2022-10-19T10:17:17.965Z,102803.69
2022-10-19T10:20:03.946Z,102803.47
2022-10-19T10:22:34.336Z,102813.41
2022-10-19T10:25:03.411Z,102819.53
2022-10-19T10:27:34.549Z,102810.00
2022-10-19T10:30:08.290Z,102809.00
2022-10-19T10:32:38.886Z,102807.44
2022-10-19T10:35:15.808Z,102825.44
2022-10-19T10:37:45.697Z,102812.97
2022-10-19T10:40:23.505Z,102818.00
2022-10-19T10:42:53.661Z,102824.69
2022-10-19T10:45:30.248Z,102816.13
2022-10-19T10:47:59.121Z,102817.78
2022-10-19T10:50:32.993Z,102813.22
2022-10-19T10:53:03.301Z,102811.63
2022-10-19T10:55:31.848Z,102812.41
2022-10-19T10:58:19.163Z,102828.34
2022-10-19T11:00:50.266Z,102829.06
2022-10-19T11:03:23.999Z,102823.66
2022-10-19T11:05:57.002Z,102833.13
2022-10-19T11:08:33.194Z,102816.78
2022-10-19T11:11:08.603Z,102818.88
2022-10-19T11:13:43.630Z,102799.59
2022-10-19T11:16:16.638Z,102790.41
2022-10-19T11:18:48.539Z,102809.66
2022-10-19T11:21:21.787Z,102833.53
2022-10-19T11:24:00.002Z,102810.94
2022-10-19T11:26:41.176Z,102816.09
2022-10-19T11:29:27.959Z,102793.13
2022-10-19T11:31:58.119Z,102763.63
2022-10-19T11:34:48.166Z,102746.97
2022-10-19T11:37:25.889Z,102779.19
2022-10-19T11:40:05.157Z,102791.38
2022-10-19T11:42:48.600Z,102812.03
2022-10-19T15:06:51.798Z,102739.69
2022-10-19T15:09:37.497Z,102735.03
2022-10-19T15:12:17.986Z,102738.69
2022-10-19T15:14:47.209Z,102734.09
2022-10-19T15:17:26.960Z,102739.88
2022-10-19T15:20:01.076Z,102729.69
2022-10-19T15:22:41.027Z,102729.13
2022-10-19T15:25:28.197Z,102733.31
2022-10-19T15:27:57.618Z,102739.09
2022-10-19T15:30:29.435Z,102739.63
2022-10-19T15:33:11.162Z,102738.94
2022-10-19T15:35:40.972Z,102731.88
2022-10-19T15:38:16.033Z,102731.44
2022-10-19T15:40:47.037Z,102734.69
2022-10-19T15:43:37.979Z,102728.13
2022-10-19T15:46:07.664Z,102727.81
2022-10-19T15:48:50.036Z,102722.19
2022-10-19T15:51:39.323Z,102716.81
2022-10-19T15:54:07.958Z,102719.09
2022-10-19T15:56:39.761Z,102718.16
2022-10-19T15:59:13.068Z,102721.75
2022-10-19T16:01:41.109Z,102703.28
2022-10-19T16:04:09.104Z,102703.97
2022-10-19T16:06:39.932Z,102693.16
2022-10-19T16:09:08.006Z,102700.38
2022-10-19T16:11:37.157Z,102701.47
2022-10-19T16:14:04.990Z,102687.84
2022-10-19T16:16:34.293Z,102678.16
2022-10-19T16:19:02.427Z,102684.13
2022-10-19T16:21:32.729Z,102689.34
2022-10-19T16:24:01.186Z,102684.41
2022-10-19T16:26:29.209Z,102697.25
2022-10-19T16:28:58.257Z,102695.53
2022-10-19T16:31:26.085Z,102694.25
2022-10-19T16:33:53.880Z,102687.34
2022-10-19T16:36:21.587Z,102681.69
2022-10-19T16:38:49.690Z,102687.25
2022-10-19T16:41:17.745Z,102672.34
2022-10-19T16:43:45.404Z,102674.38
2022-10-19T16:46:14.451Z,102662.97
2022-10-19T16:48:42.115Z,102638.75
2022-10-19T16:51:34.224Z,102639.31
2022-10-19T16:54:01.946Z,102651.19
2022-10-19T16:56:31.927Z,102626.56
2022-10-19T16:59:01.355Z,102627.91
2022-10-19T17:01:31.403Z,102612.75
2022-10-19T17:03:59.661Z,102623.38
2022-10-19T17:06:28.584Z,102619.44
2022-10-19T17:11:45.129Z,102605.88
2022-10-19T17:14:13.910Z,102594.25
2022-10-19T17:16:43.009Z,102586.25
2022-10-19T17:19:11.760Z,102584.28
2022-10-19T17:21:42.278Z,102597.16
2022-10-19T17:24:20.385Z,102603.59
2022-10-19T17:26:50.677Z,102572.84
2022-10-19T17:29:18.619Z,102565.47
2022-10-19T17:31:48.027Z,102567.84
2022-10-19T17:34:16.085Z,102572.81
2022-10-19T17:36:45.547Z,102582.34
2022-10-19T17:39:17.637Z,102581.06
2022-10-19T17:41:45.834Z,102572.50
2022-10-19T17:44:13.606Z,102562.63
2022-10-19T17:46:41.283Z,102567.44
2022-10-19T17:49:10.879Z,102552.84
2022-10-19T17:51:39.180Z,102566.50
2022-10-19T17:54:09.423Z,102552.25
2022-10-19T17:56:37.974Z,102545.03
2022-10-19T17:59:07.945Z,102510.59
2022-10-19T18:01:36.277Z,102500.56
2022-10-19T18:04:04.319Z,102506.88
2022-10-19T18:06:35.465Z,102484.69
2022-10-19T18:09:05.583Z,102488.88
2022-10-19T18:11:36.977Z,102499.28
2022-10-19T18:14:06.004Z,102479.00
2022-10-19T18:16:35.947Z,102502.53
2022-10-19T18:19:05.381Z,102486.22
2022-10-19T18:21:38.434Z,102497.53
2022-10-19T18:24:09.150Z,102505.41
2022-10-19T18:26:40.347Z,102529.16
2022-10-19T18:29:12.464Z,102520.03
2022-10-19T18:31:40.913Z,102513.31
2022-10-19T18:34:13.517Z,102484.44
2022-10-19T18:36:43.092Z,102502.94
2022-10-19T18:39:12.807Z,102294.38
2022-10-19T18:41:41.167Z,102390.78
2022-10-19T18:44:13.108Z,102477.81
2022-10-19T18:46:41.749Z,102493.13
2022-10-19T18:49:11.581Z,102455.25
2022-10-19T18:51:39.525Z,102377.72
2022-10-19T18:54:09.238Z,102394.91
2022-10-19T18:56:37.434Z,102419.00
2022-10-19T18:59:06.406Z,102537.09
2022-10-19T19:01:34.414Z,102536.09
2022-10-19T19:04:07.699Z,102563.69
2022-10-19T19:06:36.239Z,102568.25
2022-10-19T19:09:07.500Z,102512.59
2022-10-19T19:11:39.219Z,102492.56
2022-10-19T19:14:09.435Z,102552.53
2022-10-19T19:16:38.944Z,102510.59
2022-10-19T19:19:08.098Z,102455.56
2022-10-19T19:21:37.016Z,102433.94
2022-10-19T19:24:07.157Z,102459.94
2022-10-19T19:26:39.320Z,102471.06
2022-10-19T19:29:07.218Z,102470.78
2022-10-19T19:31:35.245Z,102467.09
2022-10-19T19:34:03.259Z,102434.59
2022-10-19T19:36:31.077Z,102414.28
2022-10-19T19:39:23.738Z,102348.38
2022-10-19T19:41:52.896Z,102350.19
2022-10-19T19:44:20.773Z,102367.25
2022-10-19T19:46:48.940Z,102386.75
2022-10-19T19:49:17.090Z,102312.56
2022-10-19T19:51:44.986Z,102289.44
2022-10-19T19:54:12.872Z,102323.78
2022-10-19T19:56:42.271Z,102341.63
2022-10-19T19:59:13.574Z,102307.78
2022-10-19T20:01:42.151Z,102308.59
2022-10-19T20:04:10.393Z,102295.13
2022-10-19T20:06:39.842Z,102293.97
2022-10-19T20:09:08.802Z,102326.28
2022-10-19T20:11:41.856Z,102331.75
2022-10-19T20:14:11.880Z,102306.16
2022-10-19T20:16:39.605Z,102320.50
2022-10-19T20:19:09.601Z,102366.44
2022-10-19T20:21:37.673Z,102372.06
2022-10-19T20:24:05.738Z,102375.53
2022-10-19T20:26:34.066Z,102395.88
2022-10-19T20:29:03.882Z,102391.91
2022-10-19T20:31:41.403Z,102387.13
2022-10-19T20:34:10.961Z,102392.81
2022-10-19T20:36:38.897Z,102400.13
2022-10-19T20:39:06.697Z,102393.84
2022-10-19T20:41:34.715Z,102366.19
2022-10-19T20:44:05.636Z,102388.13
2022-10-19T20:46:36.887Z,102402.63
2022-10-19T20:49:04.882Z,102378.31
2022-10-19T20:51:35.300Z,102387.56
2022-10-19T20:54:07.065Z,102386.69
2022-10-19T20:56:38.809Z,102335.31
2022-10-19T20:59:09.049Z,102345.19
2022-10-19T21:01:42.577Z,102381.44
2022-10-19T21:04:12.333Z,102428.22
2022-10-19T21:06:42.718Z,102435.56
2022-10-19T21:09:12.029Z,102417.59
2022-10-19T21:11:42.872Z,102384.25
2022-10-19T21:14:14.446Z,102350.97
2022-10-19T21:16:43.690Z,102344.53
2022-10-19T21:19:14.170Z,102348.19
2022-10-19T21:21:43.968Z,102358.03
2022-10-19T21:24:14.146Z,102358.69
2022-10-19T21:26:42.950Z,102369.69
2022-10-19T21:29:12.186Z,102397.38
2022-10-19T21:31:43.095Z,102414.50
2022-10-19T21:34:16.352Z,102370.41
2022-10-19T21:36:44.208Z,102355.56
2022-10-19T21:39:12.063Z,102355.28
2022-10-19T21:41:39.766Z,102353.63
2022-10-19T21:44:07.465Z,102378.03
2022-10-19T21:46:35.295Z,102379.41
2022-10-19T21:49:03.045Z,102365.19
2022-10-19T21:51:35.993Z,102378.84
2022-10-19T21:54:04.609Z,102366.59
2022-10-19T21:56:32.549Z,102367.78
2022-10-19T21:59:00.406Z,102350.34
2022-10-19T22:01:30.278Z,102341.41
2022-10-19T22:03:58.923Z,102319.50
2022-10-19T22:06:27.839Z,102309.97
2022-10-19T22:08:57.681Z,102290.97
2022-10-19T22:11:26.700Z,102337.25
2022-10-19T22:13:55.751Z,102323.78
2022-10-19T22:16:24.602Z,102314.38
2022-10-19T22:18:53.285Z,102304.31
2022-10-19T22:21:23.263Z,102299.53
2022-10-19T22:23:57.115Z,102274.00
2022-10-19T22:26:27.125Z,102254.13
2022-10-19T22:28:56.161Z,102239.69
2022-10-19T22:31:24.155Z,102239.47
2022-10-19T22:33:51.854Z,102235.81
2022-10-19T22:36:19.951Z,102258.94
2022-10-19T22:38:47.764Z,102235.97
2022-10-19T22:41:16.844Z,102233.34
2022-10-19T22:43:44.595Z,102242.00
2022-10-19T22:46:12.264Z,102257.38
2022-10-19T22:48:39.968Z,102247.47
2022-10-19T22:51:07.977Z,102250.06
2022-10-19T22:53:35.697Z,102251.38
2022-10-19T22:56:03.389Z,102259.88
2022-10-19T22:58:32.546Z,102254.38
2022-10-19T23:01:01.897Z,102282.84
2022-10-19T23:03:29.635Z,102287.16
2022-10-19T23:05:57.783Z,102303.69
2022-10-19T23:08:25.751Z,102295.38
2022-10-19T23:10:54.810Z,102291.50
2022-10-19T23:13:22.649Z,102281.13
2022-10-19T23:15:51.744Z,102275.66
2022-10-19T23:18:19.611Z,102292.66
2022-10-19T23:20:54.430Z,102294.06
2022-10-19T23:23:22.137Z,102263.50
2022-10-19T23:25:59.013Z,102240.78
2022-10-19T23:28:26.730Z,102240.84
2022-10-19T23:30:57.202Z,102232.34
2022-10-19T23:33:24.989Z,102233.59
2022-10-19T23:35:53.327Z,102235.59
2022-10-19T23:38:21.014Z,102246.25
2022-10-19T23:40:48.770Z,102251.47
2022-10-19T23:43:16.468Z,102240.09
2022-10-19T23:45:46.061Z,102237.84
2022-10-19T23:48:15.157Z,102215.00
2022-10-19T23:50:42.865Z,102177.97
2022-10-19T23:53:10.556Z,102197.81
2022-10-19T23:55:38.601Z,102186.25
2022-10-19T23:58:06.280Z,102185.00
